• Join FlightAware (Why Join?)
  • Login
  • US Flag 
04:34PM EDT


 

Airport Tracker/Info


-or-


 

Live Flight TrackerFlight Track Log ✈ N830QS ✈ 03-Jul-2013 ✈ KAPF - MMUN / CUN

Flight Track Log - Related Links

Times and Time Zones

All times are in EDT time to prevent confusion due to time zone crossing. See the N830QS flight status page for this flight to view local times or setup timezone preferences in your user account.

Time Position Orientation Groundspeed Altitude Reporting Facility
EDT Latitude Longitude Course Direction KTS MPH feet Rate Location/Type
03:31PM 26.1033 -81.6800 153° Southeast 217 250 3,800  Level Miami Center
03:32PM 26.0528 -81.6897 190° South 232 267 5,900 2,460 Climbing Miami Center
03:33PM 25.9869 -81.7264 207° Southwest 255 293 8,800 3,000 Climbing Miami Center
03:34PM 25.9186 -81.7675 208° Southwest 272 313 12,000 3,060 Climbing Miami Center
03:35PM 25.8464 -81.8058 206° Southwest 287 330 15,000 3,000 Climbing Miami Center
03:36PM 25.5772 -81.5873 153° Southeast  Level FlightAware Approximate
03:36PM 25.7792 -81.8769 224° Southwest 302 348 18,100  Level Miami Center
03:37PM 25.4840 -81.5355 153° Southeast  Level FlightAware Approximate
03:37PM 25.7308 -81.9464 232° Southwest 319 367 21,300  Level Miami Center
03:38PM 25.6619 -82.0056 218° Southwest 319 367 23,000 840 Climbing Miami Center
03:39PM 25.5825 -82.0692 216° Southwest 335 386 23,000 720 Level Miami Center
03:40PM 25.5008 -82.1392 218° Southwest 357 411 24,500 1,380 Climbing Miami Center
03:41PM 25.4269 -82.2164 223° Southwest 371 427 25,800 1,080 Climbing Miami Center
03:42PM 25.3511 -82.2933 223° Southwest 371 427 26,700 600 Climbing Miami Center
03:43PM 25.2711 -82.3681 220° Southwest 371 427 27,000 300 Climbing Miami Center
03:44PM 25.1728 -82.4231 207° Southwest 390 449 27,400 1,140 Climbing Miami Center
03:45PM 25.0747 -82.4758 206° Southwest 390 449 29,300 1,800 Climbing Miami Center
03:46PM 24.9811 -82.5289 207° Southwest 395 455 31,000 1,680 Climbing Miami Center
03:47PM 24.8872 -82.5794 206° Southwest 395 455 32,700 1,680 Climbing Miami Center
03:48PM 24.7914 -82.6300 206° Southwest 390 449 34,400 1,500 Climbing Miami Center
03:49PM 24.6994 -82.6806 207° Southwest 385 443 35,800 1,560 Climbing Miami Center
03:50PM 24.6058 -82.7286 205° Southwest 374 430 37,600 1,560 Climbing Miami Center
03:51PM 24.5161 -82.7792 207° Southwest 368 423 39,000 1,200 Climbing Miami Center
03:52PM 24.4267 -82.8250 205° Southwest 368 423 40,000 480 Climbing Miami Center
03:53PM 24.3286 -82.8772 206° Southwest 380 437 40,000  Level Miami Center
03:54PM 24.2261 -82.9314 206° Southwest 397 457 40,000  Level Miami Center
03:56PM 24.1197 -82.9696 206° Southwest  Level FlightAware Approximate
04:03PM 23.7547 -83.5761 244° Southwest  Level FlightAware Approximate
04:04PM 23.7110 -83.6721 244° Southwest  Level FlightAware Approximate
04:05PM 23.6673 -83.7680 244° Southwest  Level FlightAware Approximate
04:06PM 23.6235 -83.8639 244° Southwest  Level FlightAware Approximate
04:07PM 23.5796 -83.9596 243° Southwest  Level FlightAware Approximate
04:08PM 23.5357 -84.0554 243° Southwest  Level FlightAware Approximate
04:09PM 23.4918 -84.1510 243° Southwest  Level FlightAware Approximate
04:10PM 23.4477 -84.2466 243° Southwest  Level FlightAware Approximate
04:11PM 23.4037 -84.3421 243° Southwest  Level FlightAware Approximate
04:12PM 23.3609 -84.4383 244° Southwest  Level FlightAware Approximate
04:13PM 23.3182 -84.5345 244° Southwest  Level FlightAware Approximate
04:14PM 23.2755 -84.6307 244° Southwest  Level FlightAware Approximate
04:15PM 23.2327 -84.7268 244° Southwest  Level FlightAware Approximate
04:16PM 23.1820 -84.8160 219° Southwest  Level FlightAware Approximate
04:17PM 23.1061 -84.8837 219° Southwest  Level FlightAware Approximate
04:18PM 23.0302 -84.9512 219° Southwest  Level FlightAware Approximate
04:19PM 22.9542 -85.0186 219° Southwest  Level FlightAware Approximate
04:20PM 22.8788 -85.0867 221° Southwest  Level FlightAware Approximate
04:21PM 22.8049 -85.1567 221° Southwest  Level FlightAware Approximate
04:22PM 22.7309 -85.2266 221° Southwest  Level FlightAware Approximate
04:23PM 22.6569 -85.2964 221° Southwest  Level FlightAware Approximate
04:24PM 22.5944 -85.3718 221° Southwest  Level FlightAware Approximate
04:25PM 22.5200 -85.4411 221° Southwest  Level FlightAware Approximate
04:26PM 22.4455 -85.5102 221° Southwest  Level FlightAware Approximate
04:27PM 22.3710 -85.5793 221° Southwest  Level FlightAware Approximate
04:28PM 22.2981 -85.6502 220° Southwest  Level FlightAware Approximate
04:29PM 22.2231 -85.7185 220° Southwest  Level FlightAware Approximate
04:30PM 22.1480 -85.7867 220° Southwest  Level FlightAware Approximate
04:31PM 22.0730 -85.8549 220° Southwest  Level FlightAware Approximate
04:32PM 21.9980 -85.9231 220° Southwest  Level FlightAware Approximate
04:33PM 21.9240 -85.9926 223° Southwest  Level FlightAware Approximate
04:34PM 21.8522 -86.0646 223° Southwest  Level FlightAware Approximate
04:35PM 21.7802 -86.1365 223° Southwest  Level FlightAware Approximate
04:36PM 21.7084 -86.2084 223° Southwest  Level FlightAware Approximate
04:37PM 21.6365 -86.2802 223° Southwest  Level FlightAware Approximate
04:38PM 21.5646 -86.3521 223° Southwest  Level FlightAware Approximate
04:39PM 21.4925 -86.4235 220° Southwest  Level FlightAware Approximate
04:40PM 21.4173 -86.4912 220° Southwest  Level FlightAware Approximate
04:41PM 21.3421 -86.5588 220° Southwest  Level FlightAware Approximate
04:42PM 21.2740 -86.6346 227° Southwest  Level FlightAware Approximate
04:43PM 21.2036 -86.7065 205° Southwest  Level FlightAware Approximate
04:44PM 21.1280 -86.7721 223° Southwest  Level FlightAware Approximate
04:45PM 21.0529 -86.8395 215° Southwest  Level FlightAware Approximate
04:46PM 21.0167 -86.8667 215° Southwest  Level FlightAware Approximate
04:47PM 21.0365 -86.8771 215° Southwest  Level Estimated
04:48PM 21.0365 -86.8771 215° Southwest  Level Estimated
04:49PM 21.0365 -86.8771 215° Southwest  Level Estimated
04:50PM 21.0365 -86.8771 215° Southwest  Level Estimated
04:51PM 21.0365 -86.8771 215° Southwest  Level Estimated
04:52PM 21.0365 -86.8771 215° Southwest  Level Estimated
04:53PM 21.0365 -86.8771 215° Southwest  Level Estimated
04:54PM 21.0365 -86.8771 215° Southwest  Level Estimated
04:55PM 21.0365 -86.8771 215° Southwest  Level Estimated
04:56PM 21.0365 -86.8771 215° Southwest  Level Estimated
04:57PM 21.0365 -86.8771 215° Southwest  Level Estimated
04:58PM 21.0365 -86.8771 215° Southwest  Level Estimated
04:59PM 21.0365 -86.8771 215° Southwest  Level Estimated
05:00PM 21.0365 -86.8771 215° Southwest  Level Estimated